^ Back to Top

Niederschlagsradar DWD

© Deutscher Wetterdienst, Offenbach (DWD)

Aviation WX

[source: ADDS]
METAR
EDDN 300050Z VRB01KT CAVOK 14/12 Q1023 =
TAF
TAF EDDN 292300Z 3000/3024 03005KT 9999 SCT030 =
SR / SS: 04:30 / 18:01 UTC (ETHR 2016-08-30)

Statistiken

Besucher
40
Beiträge
36
Weblinks
10
Anzahl Beitragshäufigkeit
55807